createdAt,value
2019-02-16T00:01:16.805Z,81.45
2019-02-16T00:03:24.649Z,81.49
2019-02-16T00:05:32.324Z,81.35
2019-02-16T00:07:40.036Z,81.52
2019-02-16T00:09:47.730Z,82.35
2019-02-16T00:11:55.521Z,82.28
2019-02-16T00:14:03.238Z,82.04
2019-02-16T00:16:10.940Z,82.07
2019-02-16T00:18:18.636Z,81.66
2019-02-16T00:20:26.384Z,82.04
2019-02-16T00:22:34.140Z,82.31
2019-02-16T00:24:41.895Z,82.17
2019-02-16T00:26:49.695Z,82.06
2019-02-16T00:28:57.430Z,81.91
2019-02-16T00:31:05.208Z,82.31
2019-02-16T00:33:12.920Z,83.23
2019-02-16T00:35:20.596Z,82.99
2019-02-16T00:37:28.200Z,83.26
2019-02-16T00:39:35.969Z,83.21
2019-02-16T00:41:43.661Z,82.67
2019-02-16T00:43:51.436Z,82.57
2019-02-16T00:45:59.104Z,82.43
2019-02-16T00:48:06.849Z,83.50
2019-02-16T00:50:14.657Z,83.07
2019-02-16T00:52:22.364Z,83.18
2019-02-16T00:54:29.991Z,82.67
2019-02-16T00:56:37.551Z,83.36
2019-02-16T00:58:45.263Z,83.56
2019-02-16T01:00:53.015Z,83.29
2019-02-16T01:03:00.699Z,83.39
2019-02-16T01:05:09.094Z,83.47
2019-02-16T01:07:16.804Z,84.25
2019-02-16T01:09:24.451Z,83.34
2019-02-16T01:11:32.044Z,82.69
2019-02-16T01:13:39.696Z,83.13
2019-02-16T01:15:47.470Z,83.57
2019-02-16T01:17:55.231Z,83.86
2019-02-16T01:20:02.958Z,83.43
2019-02-16T01:22:10.530Z,83.55
2019-02-16T01:24:18.385Z,83.03
2019-02-16T01:26:26.235Z,83.46
2019-02-16T01:28:33.840Z,83.12
2019-02-16T01:30:41.635Z,82.68
2019-02-16T01:32:49.474Z,82.25
2019-02-16T01:34:57.124Z,82.58
2019-02-16T01:37:05.003Z,82.81
2019-02-16T01:39:12.806Z,82.81
2019-02-16T01:41:20.548Z,82.25
2019-02-16T01:43:28.199Z,82.07
2019-02-16T01:45:35.848Z,82.81
2019-02-16T01:47:43.909Z,82.44
2019-02-16T01:49:51.683Z,83.37
2019-02-16T01:51:59.474Z,82.90
2019-02-16T01:54:07.652Z,83.29
2019-02-16T01:56:15.345Z,82.86
2019-02-16T01:58:23.030Z,82.94
2019-02-16T02:00:30.662Z,83.43
2019-02-16T02:02:38.397Z,82.87
2019-02-16T02:04:46.238Z,83.18
2019-02-16T02:06:53.784Z,82.87
2019-02-16T02:09:01.431Z,83.06
2019-02-16T02:11:09.197Z,83.76
2019-02-16T02:13:16.779Z,84.05
2019-02-16T02:15:24.431Z,83.39
2019-02-16T02:17:32.151Z,83.09
2019-02-16T02:19:39.909Z,82.56
2019-02-16T02:21:47.302Z,82.43
2019-02-16T02:23:55.026Z,82.26
2019-02-16T02:26:02.579Z,82.80
2019-02-16T02:28:10.392Z,83.00
2019-02-16T02:30:18.262Z,83.22
2019-02-16T02:32:25.888Z,83.03
2019-02-16T02:34:33.586Z,84.09
2019-02-16T02:36:41.280Z,84.29
2019-02-16T02:38:49.092Z,83.07
2019-02-16T02:40:56.786Z,83.76
2019-02-16T02:43:04.424Z,83.04
2019-02-16T02:45:12.575Z,82.87
2019-02-16T02:47:20.367Z,83.44
2019-02-16T02:49:28.136Z,83.85
2019-02-16T02:51:35.888Z,84.42
2019-02-16T02:53:43.593Z,83.85
2019-02-16T02:55:51.320Z,83.46
2019-02-16T02:57:59.091Z,83.24
2019-02-16T03:00:07.920Z,83.62
2019-02-16T03:02:15.535Z,83.40
2019-02-16T03:04:23.116Z,83.18
2019-02-16T03:06:30.874Z,83.57
2019-02-16T03:08:38.675Z,83.22
2019-02-16T03:10:46.419Z,82.92
2019-02-16T03:12:54.070Z,83.04
2019-02-16T03:15:01.770Z,82.84
2019-02-16T03:17:09.571Z,82.75
2019-02-16T03:19:17.274Z,82.72
2019-02-16T03:21:24.865Z,82.88
2019-02-16T03:23:33.007Z,83.36
2019-02-16T03:25:40.932Z,83.29
2019-02-16T03:28:32.423Z,83.28
2019-02-16T03:31:48.047Z,83.04
2019-02-16T03:34:06.021Z,82.82
2019-02-16T03:37:16.425Z,83.28
2019-02-16T03:39:38.625Z,83.28
2019-02-16T03:41:46.398Z,83.01
2019-02-16T03:43:54.057Z,83.25
2019-02-16T03:46:01.494Z,83.69
2019-02-16T03:48:09.300Z,84.03
2019-02-16T03:50:16.937Z,83.12
2019-02-16T03:52:24.521Z,82.81
2019-02-16T03:54:32.430Z,82.46
2019-02-16T03:56:40.090Z,83.44
2019-02-16T03:58:47.739Z,84.27
2019-02-16T04:00:55.378Z,83.47
2019-02-16T04:03:03.191Z,83.42
2019-02-16T04:05:11.059Z,83.09
2019-02-16T04:07:18.783Z,83.51
2019-02-16T04:09:26.444Z,83.91
2019-02-16T04:11:34.147Z,83.76
2019-02-16T04:13:41.814Z,83.41
2019-02-16T04:15:49.650Z,82.89
2019-02-16T04:17:57.398Z,83.63
2019-02-16T04:20:05.466Z,83.37
2019-02-16T04:22:23.835Z,83.08
2019-02-16T04:24:22.653Z,83.51
2019-02-16T04:26:30.496Z,83.22
2019-02-16T04:28:38.101Z,83.94
2019-02-16T04:30:45.810Z,84.27
2019-02-16T04:32:53.509Z,84.30
2019-02-16T04:35:01.226Z,83.23
2019-02-16T04:37:08.864Z,83.35
2019-02-16T04:39:16.533Z,83.06
2019-02-16T04:41:24.289Z,83.04
2019-02-16T04:43:32.127Z,83.17
2019-02-16T04:45:40.023Z,82.48
2019-02-16T04:47:47.774Z,82.68
2019-02-16T04:49:55.418Z,82.42
2019-02-16T04:52:03.218Z,82.82
2019-02-16T04:54:11.040Z,83.58
2019-02-16T04:56:18.788Z,83.35
2019-02-16T04:58:26.502Z,83.44
2019-02-16T05:00:34.119Z,83.63
2019-02-16T05:02:41.860Z,83.19
2019-02-16T05:04:49.625Z,82.84
2019-02-16T05:06:57.485Z,82.92
2019-02-16T05:09:06.887Z,83.79
2019-02-16T05:11:14.485Z,83.71
2019-02-16T05:13:22.147Z,83.50
2019-02-16T05:15:29.909Z,83.22
2019-02-16T05:17:37.559Z,82.56
2019-02-16T05:19:45.237Z,82.57
2019-02-16T05:21:52.958Z,82.66
2019-02-16T05:24:00.703Z,82.62
2019-02-16T05:26:08.485Z,82.88
2019-02-16T05:28:16.169Z,83.18
2019-02-16T05:30:23.505Z,83.77
2019-02-16T05:32:30.858Z,83.46
2019-02-16T05:34:38.226Z,83.60
2019-02-16T05:36:46.223Z,83.28
2019-02-16T05:38:53.937Z,84.28
2019-02-16T05:41:01.601Z,84.00
2019-02-16T05:43:10.323Z,83.91
2019-02-16T05:45:18.178Z,84.13
2019-02-16T05:47:25.804Z,83.88
2019-02-16T05:49:33.436Z,83.61
2019-02-16T05:51:41.015Z,83.41
2019-02-16T05:53:48.692Z,83.74
2019-02-16T05:55:56.389Z,83.66
2019-02-16T05:58:04.167Z,83.81
2019-02-16T06:00:13.296Z,83.36
2019-02-16T06:02:21.073Z,83.04
2019-02-16T06:04:28.814Z,83.41
2019-02-16T06:06:36.427Z,84.59
2019-02-16T06:08:44.039Z,83.88
2019-02-16T06:10:51.735Z,83.66
2019-02-16T06:12:59.417Z,83.75
2019-02-16T06:15:07.841Z,83.55
2019-02-16T06:17:15.431Z,83.19
2019-02-16T06:19:23.096Z,84.18
2019-02-16T06:21:30.789Z,84.32
2019-02-16T06:23:38.536Z,84.38
2019-02-16T06:25:46.452Z,83.66
2019-02-16T06:27:54.303Z,83.26
2019-02-16T06:30:01.793Z,83.50
2019-02-16T06:32:09.498Z,83.29
2019-02-16T06:34:17.134Z,83.27
2019-02-16T06:36:43.812Z,83.25
2019-02-16T06:38:51.517Z,83.38
2019-02-16T06:40:59.401Z,84.36
2019-02-16T06:43:07.195Z,83.81
2019-02-16T06:45:14.961Z,84.54
2019-02-16T06:47:22.771Z,84.37
2019-02-16T06:49:30.717Z,85.20
2019-02-16T06:51:38.473Z,85.43
2019-02-16T06:53:46.196Z,85.51
2019-02-16T06:56:00.618Z,85.18
2019-02-16T06:58:08.488Z,84.38
2019-02-16T07:00:18.054Z,84.26
2019-02-16T07:02:26.973Z,83.83
2019-02-16T07:04:34.868Z,83.80
2019-02-16T07:06:42.740Z,83.82
2019-02-16T07:08:50.852Z,83.44
2019-02-16T07:10:58.694Z,83.09
2019-02-16T07:13:06.509Z,83.06
2019-02-16T07:15:14.174Z,83.60
2019-02-16T07:17:40.590Z,84.37
2019-02-16T07:19:52.031Z,84.48
2019-02-16T07:21:59.812Z,83.97
2019-02-16T07:24:07.571Z,84.00
2019-02-16T07:26:15.523Z,83.24
2019-02-16T07:28:23.028Z,82.87
2019-02-16T07:30:30.585Z,82.57
2019-02-16T07:32:38.427Z,83.27
2019-02-16T07:34:46.160Z,83.16
2019-02-16T07:36:53.821Z,83.71
2019-02-16T07:39:01.489Z,84.38
2019-02-16T07:41:09.244Z,84.09
2019-02-16T07:43:54.234Z,83.22
2019-02-16T07:46:07.907Z,83.35
2019-02-16T07:48:26.301Z,84.01
2019-02-16T07:50:40.310Z,83.98
2019-02-16T07:53:09.725Z,83.47
2019-02-16T07:55:36.433Z,84.14
2019-02-16T07:57:52.877Z,84.18
2019-02-16T08:00:14.306Z,84.63
2019-02-16T08:02:39.701Z,84.02
2019-02-16T08:05:06.119Z,83.77
2019-02-16T08:07:38.735Z,84.21
2019-02-16T08:10:08.095Z,83.76
2019-02-16T08:12:40.726Z,83.99
2019-02-16T08:15:00.105Z,83.46
2019-02-16T08:17:26.903Z,84.14
2019-02-16T08:19:57.539Z,85.12
2019-02-16T08:22:11.637Z,84.66
2019-02-16T08:24:45.503Z,85.17
2019-02-16T08:27:10.712Z,85.27
2019-02-16T08:29:52.197Z,84.76
2019-02-16T08:32:18.971Z,84.78
2019-02-16T08:34:42.650Z,84.13
2019-02-16T08:37:09.582Z,84.04
2019-02-16T08:39:31.522Z,84.46
2019-02-16T08:42:04.288Z,85.00
2019-02-16T08:44:37.152Z,85.17
2019-02-16T08:46:54.551Z,84.75
2019-02-16T08:49:24.184Z,84.68
2019-02-16T08:51:40.218Z,84.64
2019-02-16T08:54:25.285Z,84.47
2019-02-16T08:56:54.665Z,85.29
2019-02-16T08:59:23.844Z,84.80
2019-02-16T09:01:53.097Z,83.60
2019-02-16T09:04:12.229Z,83.88
2019-02-16T09:06:32.842Z,84.09
2019-02-16T09:09:05.475Z,84.18
2019-02-16T09:11:24.106Z,84.02
2019-02-16T09:14:02.707Z,84.67
2019-02-16T09:16:29.242Z,84.58
2019-02-16T09:18:58.601Z,84.45
2019-02-16T09:21:28.047Z,84.43
2019-02-16T09:23:59.452Z,84.60
2019-02-16T09:26:13.806Z,84.67
2019-02-16T09:28:40.279Z,84.71
2019-02-16T09:31:05.538Z,84.17
2019-02-16T09:33:32.954Z,84.39
2019-02-16T09:35:58.281Z,84.71
2019-02-16T09:38:28.202Z,84.40
2019-02-16T09:41:02.732Z,83.61
2019-02-16T09:43:38.384Z,83.43
2019-02-16T09:46:02.799Z,82.54
2019-02-16T09:48:16.886Z,82.88
2019-02-16T09:50:46.402Z,82.81
2019-02-16T09:53:31.492Z,82.62
2019-02-16T09:55:57.076Z,82.33
2019-02-16T09:58:22.830Z,83.13
2019-02-16T10:00:40.393Z,83.28
2019-02-16T10:03:00.495Z,82.37
2019-02-16T10:05:26.566Z,82.08
2019-02-16T10:07:47.493Z,83.30
2019-02-16T10:10:04.030Z,83.22
2019-02-16T10:12:42.672Z,82.45
2019-02-16T10:15:08.719Z,83.03
2019-02-16T10:17:26.260Z,82.72
2019-02-16T10:20:00.325Z,82.87
2019-02-16T10:22:28.303Z,82.03
2019-02-16T10:24:55.889Z,81.65
2019-02-16T10:27:21.484Z,82.78
2019-02-16T10:29:51.390Z,82.77
2019-02-16T10:32:17.064Z,82.37
2019-02-16T10:34:48.969Z,81.40
2019-02-16T10:37:14.676Z,82.12
2019-02-16T10:39:44.424Z,81.60
2019-02-16T10:42:12.073Z,82.25
2019-02-16T10:44:56.983Z,81.66
2019-02-16T10:47:38.684Z,81.76
2019-02-16T10:50:07.960Z,81.63
2019-02-16T10:52:34.943Z,81.64
2019-02-16T10:55:02.089Z,81.13
2019-02-16T10:57:26.225Z,80.60
2019-02-16T11:00:02.074Z,80.20
2019-02-16T11:02:15.896Z,79.84
2019-02-16T11:04:57.831Z,79.95
2019-02-16T11:07:29.309Z,80.37
2019-02-16T11:09:43.031Z,80.40
2019-02-16T11:12:12.998Z,79.46
2019-02-16T11:14:49.021Z,79.71
2019-02-16T11:17:09.758Z,79.39
2019-02-16T11:19:45.775Z,79.06
2019-02-16T11:22:18.975Z,79.21
2019-02-16T11:24:41.199Z,79.35
2019-02-16T11:27:06.578Z,79.00
2019-02-16T11:29:39.301Z,77.76
2019-02-16T11:32:08.825Z,76.02
2019-02-16T11:34:32.865Z,75.35
2019-02-16T11:37:05.847Z,75.90
2019-02-16T11:39:35.385Z,75.16
2019-02-16T11:41:49.096Z,75.18
2019-02-16T11:44:21.763Z,76.09
2019-02-16T11:47:00.411Z,74.11
2019-02-16T11:49:39.286Z,73.10
2019-02-16T11:51:58.562Z,73.47
2019-02-16T11:54:23.887Z,72.47
2019-02-16T11:56:50.497Z,73.14
2019-02-16T11:59:25.773Z,73.12
2019-02-16T12:01:58.178Z,72.12
2019-02-16T12:04:29.257Z,72.69
2019-02-16T12:06:58.801Z,71.03
2019-02-16T12:09:26.426Z,72.05
2019-02-16T12:12:05.654Z,70.37
2019-02-16T12:14:23.546Z,71.07
2019-02-16T12:16:49.628Z,71.03
2019-02-16T12:19:15.795Z,70.28
2019-02-16T12:21:42.934Z,69.81
2019-02-16T12:24:18.126Z,70.97
2019-02-16T12:26:42.979Z,70.57
2019-02-16T12:29:18.480Z,70.43
2019-02-16T12:31:47.671Z,69.41
2019-02-16T12:34:06.825Z,68.79
2019-02-16T12:36:36.065Z,69.49
2019-02-16T12:39:04.838Z,69.69
2019-02-16T12:41:24.720Z,69.93
2019-02-16T12:44:02.757Z,69.89
2019-02-16T12:46:19.906Z,69.19
2019-02-16T12:48:36.390Z,68.50
2019-02-16T12:51:01.224Z,68.25
2019-02-16T12:53:33.457Z,68.02
2019-02-16T12:55:59.642Z,68.08
2019-02-16T12:58:18.798Z,67.82
2019-02-16T13:00:45.199Z,66.34
2019-02-16T13:03:10.077Z,66.99
2019-02-16T13:05:46.069Z,67.20
2019-02-16T13:07:57.926Z,67.11
2019-02-16T13:10:33.688Z,66.66
2019-02-16T13:12:59.820Z,67.52
2019-02-16T13:15:35.405Z,65.95
2019-02-16T13:18:07.758Z,65.47
2019-02-16T13:20:49.191Z,65.83
2019-02-16T13:23:06.362Z,65.44
2019-02-16T13:25:32.625Z,64.55
2019-02-16T13:28:01.796Z,64.52
2019-02-16T13:30:16.809Z,64.42
2019-02-16T13:32:44.352Z,64.46
2019-02-16T13:35:13.837Z,63.19
2019-02-16T13:37:42.739Z,63.49
2019-02-16T13:40:17.516Z,62.63
2019-02-16T13:42:50.349Z,63.19
2019-02-16T13:45:03.805Z,63.05
2019-02-16T13:47:39.812Z,61.21
2019-02-16T13:50:06.045Z,62.68
2019-02-16T13:52:30.188Z,62.48
2019-02-16T13:54:43.968Z,61.59
2019-02-16T13:57:20.276Z,61.02
2019-02-16T13:59:40.922Z,61.91
2019-02-16T14:02:13.835Z,60.55
2019-02-16T14:04:38.557Z,61.26
2019-02-16T14:07:07.834Z,61.16
2019-02-16T14:09:43.960Z,59.95
2019-02-16T14:12:00.925Z,61.20
2019-02-16T14:14:18.980Z,60.63
2019-02-16T14:16:34.504Z,59.86
2019-02-16T14:18:42.144Z,60.87
2019-02-16T14:20:49.784Z,59.00
2019-02-16T14:22:57.707Z,60.65
2019-02-16T14:25:07.637Z,60.01
2019-02-16T14:27:15.357Z,59.92
2019-02-16T14:29:24.282Z,59.92
2019-02-16T14:31:31.949Z,61.12
2019-02-16T14:33:39.672Z,61.98
2019-02-16T14:35:47.468Z,61.35
2019-02-16T14:38:08.767Z,60.27
2019-02-16T14:40:16.526Z,60.71
2019-02-16T14:42:24.625Z,59.77
2019-02-16T14:44:32.314Z,59.43
2019-02-16T14:46:40.073Z,59.47
2019-02-16T14:48:49.862Z,59.72
2019-02-16T14:50:57.314Z,59.62
2019-02-16T14:53:05.281Z,58.93
2019-02-16T14:55:14.881Z,58.33
2019-02-16T14:57:22.604Z,58.70
2019-02-16T14:59:30.457Z,58.63
2019-02-16T15:01:38.374Z,59.25
2019-02-16T15:03:46.432Z,58.80
2019-02-16T15:05:54.289Z,59.79
2019-02-16T15:08:02.032Z,60.85
2019-02-16T15:10:10.899Z,59.48
2019-02-16T15:12:18.707Z,61.18
2019-02-16T15:14:26.809Z,59.42
2019-02-16T15:16:34.636Z,60.45
2019-02-16T15:18:42.448Z,61.32
2019-02-16T15:20:50.242Z,59.95
2019-02-16T15:22:58.212Z,60.90
2019-02-16T15:25:06.335Z,60.60
2019-02-16T15:27:14.163Z,61.89
2019-02-16T15:29:22.312Z,62.29
2019-02-16T15:31:30.197Z,63.09
2019-02-16T15:33:38.116Z,62.69
2019-02-16T15:35:46.349Z,63.34
2019-02-16T15:37:54.347Z,63.34
2019-02-16T15:40:02.475Z,64.63
2019-02-16T15:42:10.573Z,64.71
2019-02-16T15:44:18.484Z,65.29
2019-02-16T15:46:26.457Z,65.29
2019-02-16T15:48:34.347Z,65.83
2019-02-16T15:50:42.224Z,66.60
2019-02-16T15:52:50.054Z,66.81
2019-02-16T15:54:57.995Z,68.00
2019-02-16T15:57:05.782Z,67.63
2019-02-16T15:59:13.783Z,68.26
2019-02-16T16:01:21.516Z,68.72
2019-02-16T16:03:29.233Z,68.85
2019-02-16T16:05:36.974Z,68.83
2019-02-16T16:07:49.520Z,69.37
2019-02-16T16:10:21.858Z,68.64
2019-02-16T16:12:56.305Z,69.38
2019-02-16T16:15:12.774Z,69.71
2019-02-16T16:17:39.365Z,69.03
2019-02-16T16:19:57.276Z,69.28
2019-02-16T16:22:29.093Z,69.94
2019-02-16T16:24:45.695Z,70.17
2019-02-16T16:27:18.115Z,70.48
2019-02-16T16:29:36.823Z,70.99
2019-02-16T16:32:03.569Z,70.68
2019-02-16T16:34:24.837Z,71.36
2019-02-16T16:36:58.119Z,71.27
2019-02-16T16:39:25.953Z,71.39
2019-02-16T16:41:53.135Z,71.22
2019-02-16T16:44:10.457Z,71.09
2019-02-16T16:46:39.513Z,71.48
2019-02-16T16:49:19.961Z,70.76
2019-02-16T16:51:58.781Z,71.38
2019-02-16T16:54:28.442Z,71.15
2019-02-16T16:56:44.592Z,72.04
2019-02-16T16:59:09.874Z,71.88
2019-02-16T17:01:35.509Z,71.63
2019-02-16T17:04:04.758Z,71.78
2019-02-16T17:06:38.028Z,71.72
2019-02-16T17:09:00.793Z,72.46
2019-02-16T17:11:26.445Z,72.30
2019-02-16T17:13:40.439Z,72.29
2019-02-16T17:15:54.212Z,72.55
2019-02-16T17:18:19.554Z,72.89
2019-02-16T17:20:34.623Z,73.10
2019-02-16T17:22:52.440Z,73.25
2019-02-16T17:25:17.900Z,73.47
2019-02-16T17:27:50.692Z,73.34
2019-02-16T17:30:22.934Z,73.88
2019-02-16T17:32:58.662Z,74.40
2019-02-16T17:35:16.452Z,73.94
2019-02-16T17:37:51.616Z,74.18
2019-02-16T17:40:18.316Z,74.35
2019-02-16T17:42:51.518Z,74.69
2019-02-16T17:45:19.172Z,74.81
2019-02-16T17:47:48.749Z,74.34
2019-02-16T17:50:24.568Z,74.77
2019-02-16T17:52:49.196Z,74.80
2019-02-16T17:55:15.573Z,74.97
2019-02-16T17:57:33.924Z,75.14
2019-02-16T18:00:03.520Z,75.78
2019-02-16T18:02:21.791Z,76.17
2019-02-16T18:04:47.826Z,75.60
2019-02-16T18:07:13.605Z,75.33
2019-02-16T18:09:46.851Z,75.39
2019-02-16T18:12:16.432Z,75.95
2019-02-16T18:14:44.558Z,76.09
2019-02-16T18:17:26.373Z,75.97
2019-02-16T18:19:55.147Z,76.38
2019-02-16T18:22:15.901Z,76.01
2019-02-16T18:24:41.094Z,76.10
2019-02-16T18:27:02.472Z,76.18
2019-02-16T18:29:38.400Z,76.05
2019-02-16T18:32:05.152Z,76.31
2019-02-16T18:34:30.627Z,76.44
2019-02-16T18:36:58.932Z,76.69
2019-02-16T18:39:19.075Z,76.57
2019-02-16T18:41:52.099Z,76.80
2019-02-16T18:44:31.009Z,76.77
2019-02-16T18:46:48.544Z,77.05
2019-02-16T18:49:15.477Z,76.64
2019-02-16T18:51:45.415Z,76.28
2019-02-16T18:54:02.402Z,77.06
2019-02-16T18:56:29.457Z,77.25
2019-02-16T18:58:54.965Z,77.01
2019-02-16T19:01:24.057Z,77.18
2019-02-16T19:03:49.262Z,76.90
2019-02-16T19:06:04.421Z,77.14
2019-02-16T19:08:30.262Z,77.67
2019-02-16T19:10:47.479Z,76.80
2019-02-16T19:13:20.374Z,77.00
2019-02-16T19:16:05.260Z,77.40
2019-02-16T19:18:24.308Z,77.52
2019-02-16T19:20:49.266Z,77.07
2019-02-16T19:23:24.981Z,77.02
2019-02-16T19:25:44.650Z,78.01
2019-02-16T19:28:12.196Z,77.79
2019-02-16T19:30:37.795Z,77.83
2019-02-16T19:33:04.727Z,78.18
2019-02-16T19:35:30.495Z,78.35
2019-02-16T19:37:52.169Z,77.06
2019-02-16T19:40:18.868Z,77.26
2019-02-16T19:42:51.812Z,77.93
2019-02-16T19:45:19.422Z,78.46
2019-02-16T19:47:45.806Z,78.27
2019-02-16T19:50:13.049Z,78.79
2019-02-16T19:52:43.170Z,78.89
2019-02-16T19:55:15.811Z,78.52
2019-02-16T19:57:35.070Z,77.98
2019-02-16T20:00:02.236Z,77.42
2019-02-16T20:02:35.014Z,77.59
2019-02-16T20:05:16.800Z,78.55
2019-02-16T20:07:53.683Z,78.66
2019-02-16T20:10:23.125Z,78.31
2019-02-16T20:13:05.065Z,77.93
2019-02-16T20:15:30.400Z,78.04
2019-02-16T20:17:56.188Z,78.44
2019-02-16T20:20:25.740Z,78.02
2019-02-16T20:22:51.561Z,78.62
2019-02-16T20:25:18.057Z,77.94
2019-02-16T20:27:44.555Z,77.74
2019-02-16T20:30:14.120Z,77.69
2019-02-16T20:32:40.595Z,77.35
2019-02-16T20:35:03.241Z,77.60
2019-02-16T20:37:33.052Z,78.15
2019-02-16T20:40:02.679Z,77.89
2019-02-16T20:42:28.036Z,77.57
2019-02-16T20:44:55.073Z,78.24
2019-02-16T20:47:18.088Z,78.40
2019-02-16T20:49:53.908Z,78.47
2019-02-16T20:52:19.609Z,78.28
2019-02-16T20:54:47.460Z,78.58
2019-02-16T20:57:04.695Z,78.35
2019-02-16T20:59:46.797Z,78.48
2019-02-16T21:02:16.510Z,79.58
2019-02-16T21:04:42.942Z,80.55
2019-02-16T21:07:08.755Z,80.59
2019-02-16T21:09:34.115Z,80.94
2019-02-16T21:12:03.572Z,80.86
2019-02-16T21:14:25.187Z,80.48
2019-02-16T21:16:46.635Z,79.80
2019-02-16T21:19:12.020Z,79.81
2019-02-16T21:21:41.268Z,79.65
2019-02-16T21:24:16.921Z,79.71
2019-02-16T21:26:36.532Z,79.89
2019-02-16T21:29:03.562Z,79.63
2019-02-16T21:31:29.124Z,79.36
2019-02-16T21:34:04.856Z,79.40
2019-02-16T21:36:24.103Z,79.62
2019-02-16T21:38:51.287Z,79.63
2019-02-16T21:41:14.437Z,79.52
2019-02-16T21:43:31.909Z,79.12
2019-02-16T21:46:04.207Z,79.40
2019-02-16T21:48:20.386Z,79.25
2019-02-16T21:50:47.073Z,79.15
2019-02-16T21:53:21.030Z,79.16
2019-02-16T21:55:37.005Z,79.32
2019-02-16T21:58:07.971Z,79.41
2019-02-16T22:00:39.999Z,79.14
2019-02-16T22:03:18.930Z,79.44
2019-02-16T22:05:52.642Z,79.24
2019-02-16T22:08:19.359Z,79.88
2019-02-16T22:10:44.476Z,79.39
2019-02-16T22:13:09.601Z,79.25
2019-02-16T22:15:17.418Z,79.42
2019-02-16T22:17:25.275Z,79.32
2019-02-16T22:19:32.621Z,79.27
2019-02-16T22:21:40.266Z,79.58
2019-02-16T22:23:47.793Z,79.54
2019-02-16T22:25:55.870Z,79.53
2019-02-16T22:28:03.623Z,79.55
2019-02-16T22:30:11.947Z,79.54
2019-02-16T22:32:19.401Z,79.72
2019-02-16T22:34:27.256Z,79.38
2019-02-16T22:36:35.210Z,79.30
2019-02-16T22:38:43.981Z,79.38
2019-02-16T22:40:51.833Z,79.20
2019-02-16T22:42:59.878Z,78.66
2019-02-16T22:45:08.426Z,78.82
2019-02-16T22:47:16.138Z,78.34
2019-02-16T22:49:24.719Z,78.03
2019-02-16T22:51:32.616Z,78.73
2019-02-16T22:53:40.623Z,78.02
2019-02-16T22:55:48.394Z,76.68
2019-02-16T22:57:56.086Z,76.86
2019-02-16T23:00:04.068Z,72.29
2019-02-16T23:02:13.184Z,71.82
2019-02-16T23:04:21.055Z,70.74
2019-02-16T23:06:28.852Z,69.82
2019-02-16T23:08:36.729Z,69.00
2019-02-16T23:10:44.490Z,69.15
2019-02-16T23:12:52.294Z,69.45
2019-02-16T23:15:00.024Z,68.21
2019-02-16T23:17:07.877Z,68.18
2019-02-16T23:19:15.700Z,67.13
2019-02-16T23:21:23.480Z,66.60
2019-02-16T23:23:31.289Z,66.22
2019-02-16T23:25:39.247Z,64.86
2019-02-16T23:27:46.704Z,64.50
2019-02-16T23:29:54.598Z,65.26
2019-02-16T23:32:02.322Z,64.21
2019-02-16T23:34:10.001Z,64.49
2019-02-16T23:36:17.849Z,63.90
2019-02-16T23:38:25.952Z,64.29
2019-02-16T23:40:33.746Z,63.58
2019-02-16T23:42:41.949Z,63.66
2019-02-16T23:44:49.728Z,63.42
2019-02-16T23:46:57.514Z,63.02
2019-02-16T23:49:05.336Z,63.87
2019-02-16T23:51:13.123Z,62.93
2019-02-16T23:53:21.076Z,62.49
2019-02-16T23:55:28.915Z,62.12
2019-02-16T23:57:36.680Z,62.73
